Decoded Metar for LFBH (LA ROCHELLE/LALE in FRANCE) (IATA:N/A) | Meteo·Mobile Aviation Weather
aviador You're here:

LFBH Decoded Metar

LA ROCHELLE/LALE in FRANCE
Report Time2019-08-24 16:30:00
UTC Time2019-08-24 16:36:12
Flight Rules vfr VFR
Wind280° at 08 kt
W.Decomp.*RWY 27: 7.9 kt HW 1.5 kt RCW
Visibility9999 m
Phenomena:N/A
Clouds:N/A
Expected CloudBase > 5,600 ft AGL from Temp-Dew spread
CeilingNone
Temp30°C (ISA +15)
Dew Point16°C (43% RH)
Heat Index30.1°C
AAT29.1°C
QNH1016 hPa
Density Alt1,903 ft
Elevation33 ft
Report Wrong Elevation
Raw Report
METAR LFBH 241630Z AUTO 28008KT CAVOK 30/16 Q1016 NOSIG=

Extra information for LFBH:More info

Metar Taf Metar & Taf Last 4 Metars F.Rules Stats Wind Profile Meteogram Temp Stats Airport Information Weather charts Add Link Nearby VenuesMetar ALERT Operation Metar Decoded Social comments